Time,TemperatureF,DewpointF,PressureIn,WindDirection,WindDirectionDegrees,WindSpeedMPH,WindSpeedGustMPH,Humidity,HourlyPrecipIn,Conditions,Clouds,dailyrainin,SoftwareType,DateUTC
2013-08-04 00:12:00,64.4,47.0,29.96,WNW,283,2.0,5.0,53,0.00,,,0.00,weatherlink.com 1.10,2013-08-04 07:12:00,
2013-08-04 00:27:00,64.0,47.0,29.96,WNW,283,2.0,5.0,54,0.00,,,0.00,weatherlink.com 1.10,2013-08-04 07:27:00,
2013-08-04 00:42:00,63.7,47.0,29.96,WNW,283,3.0,5.0,55,0.00,,,0.00,weatherlink.com 1.10,2013-08-04 07:42:00,
2013-08-04 00:57:00,63.5,47.0,29.95,WNW,283,2.0,5.0,55,0.00,,,0.00,weatherlink.com 1.10,2013-08-04 07:57:00,
2013-08-04 01:11:00,63.2,47.0,29.95,WNW,283,3.0,4.0,56,0.00,,,0.00,weatherlink.com 1.10,2013-08-04 08:11:00,
2013-08-04 01:27:00,62.6,46.0,29.95,WNW,283,1.0,3.0,56,0.00,,,0.00,weatherlink.com 1.10,2013-08-04 08:27:00,
2013-08-04 01:42:00,62.0,46.0,29.95,WNW,283,0.0,3.0,57,0.00,,,0.00,weatherlink.com 1.10,2013-08-04 08:42:00,
2013-08-04 01:57:00,61.5,46.0,29.95,WNW,283,0.0,3.0,58,0.00,,,0.00,weatherlink.com 1.10,2013-08-04 08:57:00,
2013-08-04 02:12:00,60.6,46.0,29.95,WNW,283,0.0,1.0,59,0.00,,,0.00,weatherlink.com 1.10,2013-08-04 09:12:00,
2013-08-04 02:27:00,58.8,47.0,29.95,WNW,283,0.0,0.0,64,0.00,,,0.00,weatherlink.com 1.10,2013-08-04 09:27:00,
2013-08-04 02:42:00,57.5,46.0,29.95,WNW,283,0.0,0.0,66,0.00,,,0.00,weatherlink.com 1.10,2013-08-04 09:42:00,
2013-08-04 02:57:00,56.7,46.0,29.95,WNW,283,0.0,0.0,67,0.00,,,0.00,weatherlink.com 1.10,2013-08-04 09:57:00,
2013-08-04 03:12:00,55.7,46.0,29.95,WNW,283,0.0,0.0,70,0.00,,,0.00,weatherlink.com 1.10,2013-08-04 10:12:00,
2013-08-04 03:27:00,55.2,46.0,29.95,WNW,283,0.0,0.0,70,0.00,,,0.00,weatherlink.com 1.10,2013-08-04 10:27:00,
2013-08-04 03:42:00,55.0,46.0,29.95,WNW,283,0.0,0.0,71,0.00,,,0.00,weatherlink.com 1.10,2013-08-04 10:42:00,
2013-08-04 03:57:00,55.1,46.0,29.94,WNW,283,0.0,0.0,71,0.00,,,0.00,weatherlink.com 1.10,2013-08-04 10:57:00,
2013-08-04 04:12:00,54.9,46.0,29.94,WNW,283,0.0,0.0,72,0.00,,,0.00,weatherlink.com 1.10,2013-08-04 11:12:00,
2013-08-04 04:27:00,54.4,46.0,29.94,WNW,283,0.0,1.0,72,0.00,,,0.00,weatherlink.com 1.10,2013-08-04 11:27:00,
2013-08-04 04:42:00,54.9,46.0,29.94,WNW,283,1.0,2.0,71,0.00,,,0.00,weatherlink.com 1.10,2013-08-04 11:42:00,
2013-08-04 04:57:00,55.0,46.0,29.94,WNW,283,0.0,2.0,71,0.00,,,0.00,weatherlink.com 1.10,2013-08-04 11:57:00,
2013-08-04 05:12:00,55.0,46.0,29.94,WNW,283,1.0,3.0,71,0.00,,,0.00,weatherlink.com 1.10,2013-08-04 12:12:00,
2013-08-04 05:27:00,55.0,45.0,29.94,WNW,283,1.0,3.0,70,0.00,,,0.00,weatherlink.com 1.10,2013-08-04 12:27:00,
2013-08-04 05:42:00,54.8,45.0,29.94,WNW,283,0.0,3.0,70,0.00,,,0.00,weatherlink.com 1.10,2013-08-04 12:42:00,
2013-08-04 05:57:00,54.8,45.0,29.94,WNW,283,1.0,2.0,70,0.00,,,0.00,weatherlink.com 1.10,2013-08-04 12:57:00,
2013-08-04 06:12:00,55.1,45.0,29.94,WNW,283,0.0,4.0,68,0.00,,,0.00,weatherlink.com 1.10,2013-08-04 13:12:00,
2013-08-04 06:27:00,55.1,45.0,29.95,WNW,283,3.0,5.0,69,0.00,,,0.00,weatherlink.com 1.10,2013-08-04 13:27:00,
2013-08-04 06:42:00,56.1,45.0,29.95,West,274,4.0,6.0,66,0.00,,,0.00,weatherlink.com 1.10,2013-08-04 13:42:00,
2013-08-04 06:57:00,56.6,45.0,29.95,SSE,167,5.0,10.0,65,0.00,,,0.00,weatherlink.com 1.10,2013-08-04 13:57:00,
2013-08-04 07:12:00,57.0,45.0,29.95,SSE,168,3.0,7.0,65,0.00,,,0.00,weatherlink.com 1.10,2013-08-04 14:12:00,
2013-08-04 07:27:00,57.5,46.0,29.95,SSE,161,3.0,9.0,65,0.00,,,0.00,weatherlink.com 1.10,2013-08-04 14:27:00,
2013-08-04 07:42:00,58.3,46.0,29.95,SSE,168,2.0,8.0,64,0.00,,,0.00,weatherlink.com 1.10,2013-08-04 14:42:00,
2013-08-04 07:57:00,59.4,46.0,29.96,SSE,166,2.0,8.0,62,0.00,,,0.00,weatherlink.com 1.10,2013-08-04 14:57:00,
2013-08-04 08:12:00,60.6,47.0,29.96,SSE,165,2.0,6.0,61,0.00,,,0.00,weatherlink.com 1.10,2013-08-04 15:12:00,
2013-08-04 08:27:00,61.9,47.0,29.96,SSE,165,2.0,6.0,59,0.00,,,0.00,weatherlink.com 1.10,2013-08-04 15:27:00,
2013-08-04 08:42:00,63.6,47.0,29.95,SSE,166,2.0,4.0,56,0.00,,,0.00,weatherlink.com 1.10,2013-08-04 15:42:00,
2013-08-04 08:57:00,64.8,48.0,29.95,SSE,166,1.0,4.0,55,0.00,,,0.00,weatherlink.com 1.10,2013-08-04 15:57:00,
2013-08-04 09:12:00,66.0,48.0,29.95,SSE,166,3.0,3.0,53,0.00,,,0.00,weatherlink.com 1.10,2013-08-04 16:12:00,
2013-08-04 09:28:00,67.3,48.0,29.94,SSE,166,2.0,3.0,50,0.00,,,0.00,weatherlink.com 1.10,2013-08-04 16:28:00,
2013-08-04 09:43:00,68.8,48.0,29.94,WSW,257,3.0,5.0,48,0.00,,,0.00,weatherlink.com 1.10,2013-08-04 16:43:00,
2013-08-04 09:58:00,69.2,48.0,29.93,West,273,1.0,4.0,47,0.00,,,0.00,weatherlink.com 1.10,2013-08-04 16:58:00,
2013-08-04 10:13:00,71.0,49.0,29.93,WNW,299,2.0,4.0,46,0.00,,,0.00,weatherlink.com 1.10,2013-08-04 17:13:00,
2013-08-04 10:28:00,71.6,48.0,29.92,WNW,303,2.0,6.0,43,0.00,,,0.00,weatherlink.com 1.10,2013-08-04 17:28:00,
2013-08-04 10:43:00,72.0,48.0,29.92,WNW,295,2.0,6.0,42,0.00,,,0.00,weatherlink.com 1.10,2013-08-04 17:43:00,
2013-08-04 10:58:00,73.7,49.0,29.92,NNW,342,1.0,5.0,42,0.00,,,0.00,weatherlink.com 1.10,2013-08-04 17:58:00,
2013-08-04 11:13:00,74.1,48.0,29.92,NW,313,5.0,6.0,40,0.00,,,0.00,weatherlink.com 1.10,2013-08-04 18:13:00,
2013-08-04 11:28:00,75.9,49.0,29.91,NNW,340,4.0,7.0,39,0.00,,,0.00,weatherlink.com 1.10,2013-08-04 18:28:00,
2013-08-04 11:43:00,77.6,49.0,29.91,North,355,4.0,6.0,36,0.00,,,0.00,weatherlink.com 1.10,2013-08-04 18:43:00,
2013-08-04 11:58:00,77.4,48.0,29.90,NW,325,1.0,6.0,36,0.00,,,0.00,weatherlink.com 1.10,2013-08-04 18:58:00,
2013-08-04 12:13:00,79.8,50.0,29.90,NNW,333,3.0,5.0,35,0.00,,,0.00,weatherlink.com 1.10,2013-08-04 19:13:00,
2013-08-04 12:28:00,80.2,48.0,29.89,NNW,336,1.0,6.0,32,0.00,,,0.00,weatherlink.com 1.10,2013-08-04 19:28:00,
2013-08-04 12:43:00,80.8,47.0,29.89,North,5,2.0,5.0,31,0.00,,,0.00,weatherlink.com 1.10,2013-08-04 19:43:00,
2013-08-04 12:58:00,81.2,46.0,29.88,WNW,300,2.0,10.0,29,0.00,,,0.00,weatherlink.com 1.10,2013-08-04 19:58:00,
2013-08-04 13:13:00,83.1,46.0,29.88,NW,320,2.0,8.0,27,0.00,,,0.00,weatherlink.com 1.10,2013-08-04 20:13:00,
2013-08-04 13:28:00,83.2,46.0,29.87,NNE,24,4.0,9.0,27,0.00,,,0.00,weatherlink.com 1.10,2013-08-04 20:28:00,
2013-08-04 13:43:00,83.2,45.0,29.86,WNW,296,5.0,11.0,26,0.00,,,0.00,weatherlink.com 1.10,2013-08-04 20:43:00,
2013-08-04 13:58:00,83.6,44.0,29.86,NNW,338,5.0,11.0,25,0.00,,,0.00,weatherlink.com 1.10,2013-08-04 20:58:00,
2013-08-04 14:13:00,84.9,42.0,29.86,North,355,5.0,11.0,22,0.00,,,0.00,weatherlink.com 1.10,2013-08-04 21:13:00,
2013-08-04 14:28:00,85.0,42.0,29.85,NW,320,9.0,10.0,22,0.00,,,0.00,weatherlink.com 1.10,2013-08-04 21:28:00,
2013-08-04 14:43:00,85.5,43.0,29.85,NNW,332,2.0,11.0,22,0.00,,,0.00,weatherlink.com 1.10,2013-08-04 21:43:00,
2013-08-04 14:58:00,85.9,42.0,29.84,NW,319,3.0,10.0,21,0.00,,,0.00,weatherlink.com 1.10,2013-08-04 21:58:00,
2013-08-04 15:13:00,84.4,42.0,29.84,SSW,198,1.0,12.0,22,0.00,,,0.00,weatherlink.com 1.10,2013-08-04 22:13:00,
2013-08-04 15:29:00,85.0,42.0,29.83,West,263,2.0,11.0,22,0.00,,,0.00,weatherlink.com 1.10,2013-08-04 22:29:00,
2013-08-04 15:44:00,86.8,42.0,29.82,North,350,2.0,9.0,21,0.00,,,0.00,weatherlink.com 1.10,2013-08-04 22:44:00,
2013-08-04 15:59:00,86.8,42.0,29.82,NNW,344,7.0,10.0,21,0.00,,,0.00,weatherlink.com 1.10,2013-08-04 22:59:00,
2013-08-04 16:14:00,86.5,42.0,29.81,NW,324,3.0,11.0,21,0.00,,,0.00,weatherlink.com 1.10,2013-08-04 23:14:00,
2013-08-04 16:29:00,86.1,42.0,29.81,NW,317,1.0,9.0,21,0.00,,,0.00,weatherlink.com 1.10,2013-08-04 23:29:00,
2013-08-04 16:43:00,86.5,42.0,29.80,North,5,4.0,12.0,21,0.00,,,0.00,weatherlink.com 1.10,2013-08-04 23:43:00,
2013-08-04 16:59:00,86.8,44.0,29.81,West,281,7.0,11.0,22,0.00,,,0.00,weatherlink.com 1.10,2013-08-04 23:59:00,
2013-08-04 17:14:00,86.6,42.0,29.80,NW,319,8.0,11.0,21,0.00,,,0.00,weatherlink.com 1.10,2013-08-05 00:14:00,
2013-08-04 17:29:00,86.3,43.0,29.79,North,5,6.0,11.0,22,0.00,,,0.00,weatherlink.com 1.10,2013-08-05 00:29:00,
2013-08-04 17:44:00,86.4,43.0,29.79,NNW,337,5.0,11.0,22,0.00,,,0.00,weatherlink.com 1.10,2013-08-05 00:44:00,
2013-08-04 17:59:00,85.8,43.0,29.79,NNW,333,4.0,13.0,22,0.00,,,0.00,weatherlink.com 1.10,2013-08-05 00:59:00,
2013-08-04 18:14:00,85.7,43.0,29.79,NW,308,6.0,11.0,22,0.00,,,0.00,weatherlink.com 1.10,2013-08-05 01:14:00,
2013-08-04 18:29:00,85.4,41.0,29.79,NW,313,4.0,11.0,21,0.00,,,0.00,weatherlink.com 1.10,2013-08-05 01:29:00,
2013-08-04 18:44:00,84.9,43.0,29.80,WNW,300,6.0,10.0,23,0.00,,,0.00,weatherlink.com 1.10,2013-08-05 01:44:00,
2013-08-04 18:59:00,83.5,45.0,29.80,NW,304,5.0,14.0,26,0.00,,,0.00,weatherlink.com 1.10,2013-08-05 01:59:00,
2013-08-04 19:14:00,82.4,46.0,29.81,NNW,335,7.0,15.0,28,0.00,,,0.00,weatherlink.com 1.10,2013-08-05 02:14:00,
2013-08-04 19:29:00,81.2,47.0,29.81,NNW,330,5.0,16.0,30,0.00,,,0.00,weatherlink.com 1.10,2013-08-05 02:29:00,
2013-08-04 19:44:00,80.2,47.0,29.82,NW,306,5.0,16.0,31,0.00,,,0.00,weatherlink.com 1.10,2013-08-05 02:44:00,
2013-08-04 19:59:00,79.3,43.0,29.82,WNW,294,6.0,12.0,28,0.00,,,0.00,weatherlink.com 1.10,2013-08-05 02:59:00,
2013-08-04 20:14:00,78.3,42.0,29.83,WNW,294,7.0,12.0,27,0.00,,,0.00,weatherlink.com 1.10,2013-08-05 03:14:00,
2013-08-04 20:29:00,77.3,41.0,29.83,WNW,302,2.0,9.0,27,0.00,,,0.00,weatherlink.com 1.10,2013-08-05 03:29:00,
2013-08-04 20:44:00,76.4,41.0,29.83,NW,306,2.0,8.0,28,0.00,,,0.00,weatherlink.com 1.10,2013-08-05 03:44:00,
2013-08-04 20:59:00,75.5,41.0,29.85,NW,309,2.0,8.0,29,0.00,,,0.00,weatherlink.com 1.10,2013-08-05 03:59:00,
2013-08-04 21:14:00,74.4,42.0,29.85,NW,309,1.0,6.0,31,0.00,,,0.00,weatherlink.com 1.10,2013-08-05 04:14:00,
2013-08-04 21:29:00,73.7,43.0,29.86,NW,309,3.0,6.0,33,0.00,,,0.00,weatherlink.com 1.10,2013-08-05 04:29:00,
2013-08-04 21:44:00,72.9,43.0,29.87,NNW,337,5.0,7.0,34,0.00,,,0.00,weatherlink.com 1.10,2013-08-05 04:44:00,
2013-08-04 21:59:00,72.5,45.0,29.87,NNW,329,3.0,7.0,38,0.00,,,0.00,weatherlink.com 1.10,2013-08-05 04:59:00,
2013-08-04 22:14:00,72.1,46.0,29.87,NW,314,4.0,6.0,39,0.00,,,0.00,weatherlink.com 1.10,2013-08-05 05:14:00,
2013-08-04 22:29:00,71.3,46.0,29.87,NW,313,1.0,4.0,40,0.00,,,0.00,weatherlink.com 1.10,2013-08-05 05:29:00,
2013-08-04 22:44:00,70.7,46.0,29.87,NW,313,1.0,3.0,41,0.00,,,0.00,weatherlink.com 1.10,2013-08-05 05:44:00,
2013-08-04 22:59:00,70.4,47.0,29.88,NW,313,2.0,5.0,43,0.00,,,0.00,weatherlink.com 1.10,2013-08-05 05:59:00,
2013-08-04 23:14:00,69.7,47.0,29.88,NW,313,2.0,4.0,44,0.00,,,0.00,weatherlink.com 1.10,2013-08-05 06:14:00,
2013-08-04 23:29:00,69.1,46.0,29.88,NW,313,1.0,5.0,44,0.00,,,0.00,weatherlink.com 1.10,2013-08-05 06:29:00,
2013-08-04 23:44:00,68.3,47.0,29.88,NW,313,1.0,4.0,46,0.00,,,0.00,weatherlink.com 1.10,2013-08-05 06:44:00,
2013-08-04 23:59:00,68.1,46.0,29.88,NW,313,3.0,4.0,46,0.00,,,0.00,weatherlink.com 1.10,2013-08-05 06:59:00,